sensor_id;sensor_type;location;lat;lon;timestamp;pressure;altitude;pressure_sealevel;temperature;humidity
61037;BME280;57313;47.040;15.498;2022-09-30T00:00:47;95898.50;;;10.32;100.00
61037;BME280;57313;47.040;15.498;2022-09-30T00:03:14;95907.88;;;10.35;100.00
61037;BME280;57313;47.040;15.498;2022-09-30T00:05:41;95898.25;;;10.35;100.00
61037;BME280;57313;47.040;15.498;2022-09-30T00:08:09;95894.72;;;10.36;100.00
61037;BME280;57313;47.040;15.498;2022-09-30T00:10:36;95884.31;;;10.36;100.00
61037;BME280;57313;47.040;15.498;2022-09-30T00:13:03;95883.47;;;10.36;100.00
61037;BME280;57313;47.040;15.498;2022-09-30T00:15:33;95893.88;;;10.36;100.00
61037;BME280;57313;47.040;15.498;2022-09-30T00:18:00;95882.06;;;10.32;100.00
61037;BME280;57313;47.040;15.498;2022-09-30T00:20:27;95894.00;;;10.34;100.00
61037;BME280;57313;47.040;15.498;2022-09-30T00:22:55;95896.47;;;10.36;100.00
61037;BME280;57313;47.040;15.498;2022-09-30T00:25:22;95892.38;;;10.33;100.00
61037;BME280;57313;47.040;15.498;2022-09-30T00:27:49;95883.59;;;10.34;100.00
61037;BME280;57313;47.040;15.498;2022-09-30T00:30:16;95899.22;;;10.34;100.00
61037;BME280;57313;47.040;15.498;2022-09-30T00:32:45;95900.88;;;10.35;100.00
61037;BME280;57313;47.040;15.498;2022-09-30T00:35:13;95900.06;;;10.35;100.00
61037;BME280;57313;47.040;15.498;2022-09-30T00:37:46;95895.78;;;10.34;100.00
61037;BME280;57313;47.040;15.498;2022-09-30T00:40:14;95897.44;;;10.35;100.00
61037;BME280;57313;47.040;15.498;2022-09-30T00:42:41;95894.72;;;10.36;100.00
61037;BME280;57313;47.040;15.498;2022-09-30T00:45:10;95892.25;;;10.35;100.00
61037;BME280;57313;47.040;15.498;2022-09-30T00:47:42;95898.25;;;10.35;100.00
61037;BME280;57313;47.040;15.498;2022-09-30T00:50:34;95894.72;;;10.36;100.00
61037;BME280;57313;47.040;15.498;2022-09-30T00:53:10;95885.25;;;10.35;100.00
61037;BME280;57313;47.040;15.498;2022-09-30T00:55:50;95895.88;;;10.32;100.00
61037;BME280;57313;47.040;15.498;2022-09-30T00:58:24;95892.84;;;10.27;100.00
61037;BME280;57313;47.040;15.498;2022-09-30T01:00:54;95891.44;;;10.23;100.00
61037;BME280;57313;47.040;15.498;2022-09-30T01:03:22;95889.09;;;10.20;100.00
61037;BME280;57313;47.040;15.498;2022-09-30T01:05:51;95881.16;;;10.21;100.00
61037;BME280;57313;47.040;15.498;2022-09-30T01:08:20;95892.63;;;10.19;100.00
61037;BME280;57313;47.040;15.498;2022-09-30T01:10:48;95892.50;;;10.20;100.00
61037;BME280;57313;47.040;15.498;2022-09-30T01:13:17;95888.28;;;10.19;100.00
61037;BME280;57313;47.040;15.498;2022-09-30T01:15:58;95889.66;;;10.23;100.00
61037;BME280;57313;47.040;15.498;2022-09-30T01:18:41;95882.09;;;10.20;100.00
61037;BME280;57313;47.040;15.498;2022-09-30T01:24:37;95881.66;;;10.15;100.00
61037;BME280;57313;47.040;15.498;2022-09-30T01:30:10;95886.34;;;10.21;100.00
61037;BME280;57313;47.040;15.498;2022-09-30T01:33:18;95890.63;;;10.22;100.00
61037;BME280;57313;47.040;15.498;2022-09-30T01:36:09;95901.84;;;10.23;100.00
61037;BME280;57313;47.040;15.498;2022-09-30T01:38:46;95899.25;;;10.23;100.00
61037;BME280;57313;47.040;15.498;2022-09-30T01:41:19;95891.44;;;10.23;100.00
61037;BME280;57313;47.040;15.498;2022-09-30T01:44:00;95911.31;;;10.24;100.00
61037;BME280;57313;47.040;15.498;2022-09-30T01:46:34;95894.97;;;10.22;100.00
61037;BME280;57313;47.040;15.498;2022-09-30T01:49:11;95898.56;;;10.21;100.00
61037;BME280;57313;47.040;15.498;2022-09-30T01:51:46;95896.38;;;10.26;100.00
61037;BME280;57313;47.040;15.498;2022-09-30T01:54:21;95887.88;;;10.24;100.00
61037;BME280;57313;47.040;15.498;2022-09-30T01:56:54;95886.09;;;10.24;100.00
61037;BME280;57313;47.040;15.498;2022-09-30T01:59:28;95880.09;;;10.24;100.00
61037;BME280;57313;47.040;15.498;2022-09-30T02:02:02;95879.25;;;10.23;100.00
61037;BME280;57313;47.040;15.498;2022-09-30T02:04:38;95883.63;;;10.23;100.00
61037;BME280;57313;47.040;15.498;2022-09-30T02:07:11;95880.78;;;10.26;100.00
61037;BME280;57313;47.040;15.498;2022-09-30T02:09:44;95872.28;;;10.24;100.00
61037;BME280;57313;47.040;15.498;2022-09-30T02:12:16;95867.75;;;10.26;100.00
61037;BME280;57313;47.040;15.498;2022-09-30T02:14:48;95865.41;;;10.23;100.00
61037;BME280;57313;47.040;15.498;2022-09-30T02:17:20;95867.06;;;10.24;100.00
61037;BME280;57313;47.040;15.498;2022-09-30T02:19:57;95867.06;;;10.24;100.00
61037;BME280;57313;47.040;15.498;2022-09-30T02:22:29;95870.38;;;10.26;100.00
61037;BME280;57313;47.040;15.498;2022-09-30T02:24:59;95868.59;;;10.27;100.00
61037;BME280;57313;47.040;15.498;2022-09-30T02:27:32;95879.25;;;10.23;100.00
61037;BME280;57313;47.040;15.498;2022-09-30T02:30:00;95876.88;;;10.20;100.00
61037;BME280;57313;47.040;15.498;2022-09-30T02:32:32;95875.81;;;10.23;100.00
61037;BME280;57313;47.040;15.498;2022-09-30T02:35:07;95873.22;;;10.23;100.00
61037;BME280;57313;47.040;15.498;2022-09-30T02:37:39;95873.22;;;10.23;100.00
61037;BME280;57313;47.040;15.498;2022-09-30T02:40:11;95876.50;;;10.25;100.00
61037;BME280;57313;47.040;15.498;2022-09-30T02:42:42;95869.56;;;10.26;100.00
61037;BME280;57313;47.040;15.498;2022-09-30T02:45:13;95870.50;;;10.24;100.00
61037;BME280;57313;47.040;15.498;2022-09-30T02:50:37;95875.81;;;10.23;100.00
61037;BME280;57313;47.040;15.498;2022-09-30T02:53:20;95869.81;;;10.22;100.00
61037;BME280;57313;47.040;15.498;2022-09-30T02:56:13;95863.06;;;10.20;100.00
61037;BME280;57313;47.040;15.498;2022-09-30T02:58:45;95873.34;;;10.21;100.00
61037;BME280;57313;47.040;15.498;2022-09-30T03:01:14;95866.47;;;10.20;100.00
61037;BME280;57313;47.040;15.498;2022-09-30T03:03:45;95869.22;;;10.19;100.00
61037;BME280;57313;47.040;15.498;2022-09-30T03:06:17;95874.28;;;10.20;100.00
61037;BME280;57313;47.040;15.498;2022-09-30T03:08:46;95871.38;;;10.14;100.00
61037;BME280;57313;47.040;15.498;2022-09-30T03:11:14;95893.13;;;10.13;100.00
61037;BME280;57313;47.040;15.498;2022-09-30T03:14:25;95893.13;;;10.13;100.00
61037;BME280;57313;47.040;15.498;2022-09-30T03:20:06;95879.19;;;10.14;100.00
61037;BME280;57313;47.040;15.498;2022-09-30T03:22:50;95886.03;;;10.15;100.00
61037;BME280;57313;47.040;15.498;2022-09-30T03:25:30;95883.69;;;10.12;100.00
61037;BME280;57313;47.040;15.498;2022-09-30T03:28:09;95892.44;;;10.11;100.00
61037;BME280;57313;47.040;15.498;2022-09-30T03:30:47;95886.41;;;10.10;100.00
61037;BME280;57313;47.040;15.498;2022-09-30T03:33:22;95892.31;;;10.12;100.00
61037;BME280;57313;47.040;15.498;2022-09-30T03:35:57;95900.81;;;10.14;100.00
61037;BME280;57313;47.040;15.498;2022-09-30T03:38:35;95902.59;;;10.14;100.00
61037;BME280;57313;47.040;15.498;2022-09-30T03:41:10;95909.69;;;10.12;100.00
61037;BME280;57313;47.040;15.498;2022-09-30T03:43:42;95910.75;;;10.09;100.00
61037;BME280;57313;47.040;15.498;2022-09-30T03:46:16;95910.06;;;10.07;100.00
61037;BME280;57313;47.040;15.498;2022-09-30T03:48:49;95909.94;;;10.09;100.00
61037;BME280;57313;47.040;15.498;2022-09-30T03:51:17;95914.06;;;10.11;100.00
61037;BME280;57313;47.040;15.498;2022-09-30T03:53:47;95915.16;;;10.09;100.00
61037;BME280;57313;47.040;15.498;2022-09-30T03:56:15;95916.22;;;10.06;100.00
61037;BME280;57313;47.040;15.498;2022-09-30T03:58:50;95922.97;;;10.09;100.00
61037;BME280;57313;47.040;15.498;2022-09-30T04:01:18;95928.16;;;10.09;100.00
61037;BME280;57313;47.040;15.498;2022-09-30T04:03:47;95933.13;;;10.12;100.00
61037;BME280;57313;47.040;15.498;2022-09-30T04:06:15;95928.84;;;10.11;100.00
61037;BME280;57313;47.040;15.498;2022-09-30T04:08:42;95943.41;;;10.13;100.00
61037;BME280;57313;47.040;15.498;2022-09-30T04:11:12;95929.41;;;10.14;100.00
61037;BME280;57313;47.040;15.498;2022-09-30T04:13:39;95940.53;;;10.16;100.00
61037;BME280;57313;47.040;15.498;2022-09-30T04:16:07;95936.84;;;10.19;100.00
61037;BME280;57313;47.040;15.498;2022-09-30T04:18:35;95938.50;;;10.20;100.00
61037;BME280;57313;47.040;15.498;2022-09-30T04:21:05;95935.22;;;10.18;100.00
61037;BME280;57313;47.040;15.498;2022-09-30T04:23:34;95944.78;;;10.17;100.00
61037;BME280;57313;47.040;15.498;2022-09-30T04:26:02;95965.22;;;10.22;100.00
61037;BME280;57313;47.040;15.498;2022-09-30T04:28:31;95960.88;;;10.22;100.00
61037;BME280;57313;47.040;15.498;2022-09-30T04:30:59;95951.16;;;10.24;100.00
61037;BME280;57313;47.040;15.498;2022-09-30T04:33:28;95955.41;;;10.26;100.00
61037;BME280;57313;47.040;15.498;2022-09-30T04:35:56;95957.03;;;10.27;100.00
61037;BME280;57313;47.040;15.498;2022-09-30T04:38:24;95962.13;;;10.28;100.00
61037;BME280;57313;47.040;15.498;2022-09-30T04:40:52;95964.72;;;10.28;100.00
61037;BME280;57313;47.040;15.498;2022-09-30T04:43:21;95964.59;;;10.30;100.00
61037;BME280;57313;47.040;15.498;2022-09-30T04:45:51;95967.84;;;10.33;100.00
61037;BME280;57313;47.040;15.498;2022-09-30T04:48:20;95961.78;;;10.33;100.00
61037;BME280;57313;47.040;15.498;2022-09-30T04:50:48;95974.06;;;10.31;100.00
61037;BME280;57313;47.040;15.498;2022-09-30T04:53:16;95960.25;;;10.30;100.00
61037;BME280;57313;47.040;15.498;2022-09-30T04:55:44;95969.13;;;10.28;100.00
61037;BME280;57313;47.040;15.498;2022-09-30T04:58:12;95984.84;;;10.26;100.00
61037;BME280;57313;47.040;15.498;2022-09-30T05:00:40;95978.72;;;10.27;100.00
61037;BME280;57313;47.040;15.498;2022-09-30T05:03:10;95983.91;;;10.27;100.00
61037;BME280;57313;47.040;15.498;2022-09-30T05:05:37;95985.41;;;10.30;100.00
61037;BME280;57313;47.040;15.498;2022-09-30T05:08:05;95985.41;;;10.30;100.00
61037;BME280;57313;47.040;15.498;2022-09-30T05:10:32;95990.63;;;10.30;100.00
61037;BME280;57313;47.040;15.498;2022-09-30T05:12:59;95989.00;;;10.29;100.00
61037;BME280;57313;47.040;15.498;2022-09-30T05:15:27;96004.47;;;10.30;100.00
61037;BME280;57313;47.040;15.498;2022-09-30T05:17:54;96007.22;;;10.29;100.00
61037;BME280;57313;47.040;15.498;2022-09-30T05:20:24;95985.53;;;10.28;100.00
61037;BME280;57313;47.040;15.498;2022-09-30T05:22:54;95997.63;;;10.29;100.00
61037;BME280;57313;47.040;15.498;2022-09-30T05:25:22;96004.38;;;10.20;100.00
61037;BME280;57313;47.040;15.498;2022-09-30T05:27:50;96015.03;;;10.17;100.00
61037;BME280;57313;47.040;15.498;2022-09-30T05:30:17;96022.72;;;10.19;100.00
61037;BME280;57313;47.040;15.498;2022-09-30T05:32:44;96018.47;;;10.18;100.00
61037;BME280;57313;47.040;15.498;2022-09-30T05:35:11;96019.16;;;10.20;100.00
61037;BME280;57313;47.040;15.498;2022-09-30T05:37:40;96025.06;;;10.22;100.00
61037;BME280;57313;47.040;15.498;2022-09-30T05:40:08;96032.19;;;10.20;100.00
61037;BME280;57313;47.040;15.498;2022-09-30T05:42:35;96041.53;;;10.22;100.00
61037;BME280;57313;47.040;15.498;2022-09-30T05:45:02;96049.22;;;10.24;100.00
61037;BME280;57313;47.040;15.498;2022-09-30T05:47:30;96049.34;;;10.22;100.00
61037;BME280;57313;47.040;15.498;2022-09-30T05:49:57;96043.88;;;10.26;100.00
61037;BME280;57313;47.040;15.498;2022-09-30T05:52:25;96045.41;;;10.28;100.00
61037;BME280;57313;47.040;15.498;2022-09-30T05:54:54;96041.97;;;10.28;100.00
61037;BME280;57313;47.040;15.498;2022-09-30T05:57:21;96051.19;;;10.32;100.00
61037;BME280;57313;47.040;15.498;2022-09-30T05:59:48;96059.72;;;10.34;100.00
61037;BME280;57313;47.040;15.498;2022-09-30T06:02:15;96062.91;;;10.37;100.00
61037;BME280;57313;47.040;15.498;2022-09-30T06:04:43;96061.03;;;10.39;100.00
61037;BME280;57313;47.040;15.498;2022-09-30T06:07:10;96061.84;;;10.40;100.00
61037;BME280;57313;47.040;15.498;2022-09-30T06:09:37;96063.38;;;10.43;100.00
61037;BME280;57313;47.040;15.498;2022-09-30T06:12:06;96062.66;;;10.40;100.00
61037;BME280;57313;47.040;15.498;2022-09-30T06:14:33;96064.44;;;10.40;100.00
61037;BME280;57313;47.040;15.498;2022-09-30T06:17:01;96067.31;;;10.37;100.00
61037;BME280;57313;47.040;15.498;2022-09-30T06:19:29;96070.59;;;10.39;100.00
61037;BME280;57313;47.040;15.498;2022-09-30T06:21:56;96081.84;;;10.39;100.00
61037;BME280;57313;47.040;15.498;2022-09-30T06:24:24;96084.34;;;10.41;100.00
61037;BME280;57313;47.040;15.498;2022-09-30T06:26:51;96092.72;;;10.45;100.00
61037;BME280;57313;47.040;15.498;2022-09-30T06:29:20;96099.59;;;10.46;100.00
61037;BME280;57313;47.040;15.498;2022-09-30T06:31:47;96093.41;;;10.47;100.00
61037;BME280;57313;47.040;15.498;2022-09-30T06:34:14;96087.16;;;10.49;100.00
61037;BME280;57313;47.040;15.498;2022-09-30T06:36:42;96093.16;;;10.50;100.00
61037;BME280;57313;47.040;15.498;2022-09-30T06:39:09;96101.94;;;10.49;100.00
61037;BME280;57313;47.040;15.498;2022-09-30T06:41:39;96109.75;;;10.49;100.00
61037;BME280;57313;47.040;15.498;2022-09-30T06:44:06;96112.13;;;10.52;100.00
61037;BME280;57313;47.040;15.498;2022-09-30T06:46:36;96105.13;;;10.52;100.00
61037;BME280;57313;47.040;15.498;2022-09-30T06:49:19;96119.81;;;10.53;100.00
61037;BME280;57313;47.040;15.498;2022-09-30T06:51:47;96118.94;;;10.53;100.00
61037;BME280;57313;47.040;15.498;2022-09-30T06:54:14;96131.03;;;10.54;100.00
61037;BME280;57313;47.040;15.498;2022-09-30T06:56:41;96131.16;;;10.52;100.00
61037;BME280;57313;47.040;15.498;2022-09-30T06:59:08;96127.63;;;10.53;100.00
61037;BME280;57313;47.040;15.498;2022-09-30T07:01:37;96135.16;;;10.56;100.00
61037;BME280;57313;47.040;15.498;2022-09-30T07:04:04;96132.81;;;10.53;100.00
61037;BME280;57313;47.040;15.498;2022-09-30T07:06:36;96127.47;;;10.55;100.00
61037;BME280;57313;47.040;15.498;2022-09-30T07:09:03;96132.81;;;10.53;100.00
61037;BME280;57313;47.040;15.498;2022-09-30T07:11:30;96131.72;;;10.56;100.00
61037;BME280;57313;47.040;15.498;2022-09-30T07:13:58;96142.97;;;10.56;100.00
61037;BME280;57313;47.040;15.498;2022-09-30T07:16:25;96154.22;;;10.57;100.00
61037;BME280;57313;47.040;15.498;2022-09-30T07:18:54;96150.28;;;10.63;100.00
61037;BME280;57313;47.040;15.498;2022-09-30T07:21:22;96165.09;;;10.62;100.00
61037;BME280;57313;47.040;15.498;2022-09-30T07:23:49;96168.50;;;10.63;100.00
61037;BME280;57313;47.040;15.498;2022-09-30T07:26:18;96174.69;;;10.62;100.00
61037;BME280;57313;47.040;15.498;2022-09-30T07:28:46;96181.66;;;10.61;100.00
61037;BME280;57313;47.040;15.498;2022-09-30T07:31:16;96175.38;;;10.64;100.00
61037;BME280;57313;47.040;15.498;2022-09-30T07:34:00;96178.09;;;10.62;100.00
61037;BME280;57313;47.040;15.498;2022-09-30T07:36:28;96186.50;;;10.66;100.00
61037;BME280;57313;47.040;15.498;2022-09-30T07:38:59;96188.41;;;10.64;100.00
61037;BME280;57313;47.040;15.498;2022-09-30T07:41:26;96198.69;;;10.65;100.00
61037;BME280;57313;47.040;15.498;2022-09-30T07:43:55;96192.44;;;10.68;100.00
61037;BME280;57313;47.040;15.498;2022-09-30T07:46:25;96198.66;;;10.76;100.00
61037;BME280;57313;47.040;15.498;2022-09-30T07:48:53;96198.19;;;10.83;100.00
61037;BME280;57313;47.040;15.498;2022-09-30T07:51:24;96204.94;;;10.85;100.00
61037;BME280;57313;47.040;15.498;2022-09-30T07:53:54;96212.38;;;10.90;100.00
61037;BME280;57313;47.040;15.498;2022-09-30T07:56:22;96216.53;;;10.92;100.00
61037;BME280;57313;47.040;15.498;2022-09-30T07:58:52;96209.66;;;10.91;100.00
61037;BME280;57313;47.040;15.498;2022-09-30T08:01:19;96205.03;;;10.95;100.00
61037;BME280;57313;47.040;15.498;2022-09-30T08:03:47;96213.31;;;11.00;100.00
61037;BME280;57313;47.040;15.498;2022-09-30T08:06:16;96218.41;;;11.02;100.00
61037;BME280;57313;47.040;15.498;2022-09-30T08:08:46;96223.00;;;11.09;100.00
61037;BME280;57313;47.040;15.498;2022-09-30T08:11:13;96229.47;;;11.15;100.00
61037;BME280;57313;47.040;15.498;2022-09-30T08:13:41;96235.88;;;11.22;100.00
61037;BME280;57313;47.040;15.498;2022-09-30T08:16:08;96244.84;;;11.29;100.00
61037;BME280;57313;47.040;15.498;2022-09-30T08:18:35;96257.25;;;11.37;100.00
61037;BME280;57313;47.040;15.498;2022-09-30T08:21:03;96266.50;;;11.41;100.00
61037;BME280;57313;47.040;15.498;2022-09-30T08:23:31;96272.41;;;11.43;100.00
61037;BME280;57313;47.040;15.498;2022-09-30T08:26:06;96286.16;;;11.45;100.00
61037;BME280;57313;47.040;15.498;2022-09-30T08:28:34;96281.75;;;11.46;100.00
61037;BME280;57313;47.040;15.498;2022-09-30T08:31:05;96289.53;;;11.57;100.00
61037;BME280;57313;47.040;15.498;2022-09-30T08:33:33;96295.59;;;11.58;100.00
61037;BME280;57313;47.040;15.498;2022-09-30T08:36:02;96298.91;;;11.60;100.00
61037;BME280;57313;47.040;15.498;2022-09-30T08:38:29;96297.97;;;11.61;100.00
61037;BME280;57313;47.040;15.498;2022-09-30T08:41:08;96294.25;;;11.63;100.00
61037;BME280;57313;47.040;15.498;2022-09-30T08:43:43;96301.94;;;11.65;100.00
61037;BME280;57313;47.040;15.498;2022-09-30T08:46:21;96305.03;;;11.70;100.00
61037;BME280;57313;47.040;15.498;2022-09-30T08:49:01;96293.13;;;11.77;100.00
61037;BME280;57313;47.040;15.498;2022-09-30T08:51:35;96290.63;;;11.87;100.00
61037;BME280;57313;47.040;15.498;2022-09-30T08:54:10;96292.50;;;11.85;100.00
61037;BME280;57313;47.040;15.498;2022-09-30T08:56:41;96283.03;;;11.84;100.00
61037;BME280;57313;47.040;15.498;2022-09-30T08:59:20;96290.75;;;11.85;100.00
61037;BME280;57313;47.040;15.498;2022-09-30T09:01:54;96288.00;;;11.87;100.00
61037;BME280;57313;47.040;15.498;2022-09-30T09:04:25;96283.72;;;11.86;100.00
61037;BME280;57313;47.040;15.498;2022-09-30T09:06:57;96278.41;;;11.88;100.00
61037;BME280;57313;47.040;15.498;2022-09-30T09:09:43;96289.66;;;11.88;100.00
61037;BME280;57313;47.040;15.498;2022-09-30T09:12:33;96295.47;;;11.92;100.00
61037;BME280;57313;47.040;15.498;2022-09-30T09:15:20;96315.13;;;11.96;100.00
61037;BME280;57313;47.040;15.498;2022-09-30T09:18:06;96322.22;;;12.05;100.00
61037;BME280;57313;47.040;15.498;2022-09-30T09:20:55;96332.47;;;12.18;100.00
61037;BME280;57313;47.040;15.498;2022-09-30T09:23:23;96334.56;;;12.24;100.00
61037;BME280;57313;47.040;15.498;2022-09-30T09:25:51;96323.63;;;12.30;100.00
61037;BME280;57313;47.040;15.498;2022-09-30T09:28:28;96321.72;;;12.32;100.00
61037;BME280;57313;47.040;15.498;2022-09-30T09:30:58;96321.34;;;12.37;100.00
61037;BME280;57313;47.040;15.498;2022-09-30T09:33:29;96324.13;;;12.45;100.00
61037;BME280;57313;47.040;15.498;2022-09-30T09:36:05;96331.44;;;12.51;100.00
61037;BME280;57313;47.040;15.498;2022-09-30T09:38:45;96325.97;;;12.54;100.00
61037;BME280;57313;47.040;15.498;2022-09-30T09:41:27;96332.00;;;12.55;100.00
61037;BME280;57313;47.040;15.498;2022-09-30T09:44:07;96338.75;;;12.57;100.00
61037;BME280;57313;47.040;15.498;2022-09-30T09:46:40;96330.81;;;12.59;100.00
61037;BME280;57313;47.040;15.498;2022-09-30T09:49:31;96333.84;;;12.64;100.00
61037;BME280;57313;47.040;15.498;2022-09-30T09:55:06;96332.81;;;12.77;100.00
61037;BME280;57313;47.040;15.498;2022-09-30T09:57:34;96331.72;;;12.79;100.00
61037;BME280;57313;47.040;15.498;2022-09-30T10:00:05;96327.88;;;12.83;100.00
61037;BME280;57313;47.040;15.498;2022-09-30T10:02:32;96336.44;;;12.85;100.00
61037;BME280;57313;47.040;15.498;2022-09-30T10:05:00;96340.53;;;12.88;100.00
61037;BME280;57313;47.040;15.498;2022-09-30T10:07:30;96340.03;;;12.94;100.00
61037;BME280;57313;47.040;15.498;2022-09-30T10:10:07;96351.88;;;12.98;100.00
61037;BME280;57313;47.040;15.498;2022-09-30T10:12:35;96365.25;;;13.05;100.00
61037;BME280;57313;47.040;15.498;2022-09-30T10:15:20;96365.56;;;13.11;100.00
61037;BME280;57313;47.040;15.498;2022-09-30T10:17:52;96363.63;;;13.14;100.00
61037;BME280;57313;47.040;15.498;2022-09-30T10:20:26;96365.97;;;13.17;100.00
61037;BME280;57313;47.040;15.498;2022-09-30T10:23:08;96364.31;;;13.16;100.00
61037;BME280;57313;47.040;15.498;2022-09-30T10:25:36;96377.53;;;13.14;100.00
61037;BME280;57313;47.040;15.498;2022-09-30T10:28:19;96384.16;;;13.18;100.00
61037;BME280;57313;47.040;15.498;2022-09-30T10:30:53;96374.78;;;13.16;100.00
61037;BME280;57313;47.040;15.498;2022-09-30T10:33:26;96379.75;;;13.19;100.00
61037;BME280;57313;47.040;15.498;2022-09-30T10:35:59;96391.47;;;13.24;100.00
61037;BME280;57313;47.040;15.498;2022-09-30T10:38:27;96385.03;;;13.28;100.00
61037;BME280;57313;47.040;15.498;2022-09-30T10:40:55;96385.47;;;13.34;100.00
61037;BME280;57313;47.040;15.498;2022-09-30T10:43:26;96384.41;;;13.36;100.00
61037;BME280;57313;47.040;15.498;2022-09-30T10:45:57;96381.81;;;13.46;100.00
61037;BME280;57313;47.040;15.498;2022-09-30T10:48:48;96384.97;;;13.59;100.00
61037;BME280;57313;47.040;15.498;2022-09-30T10:51:22;96382.66;;;13.66;100.00
61037;BME280;57313;47.040;15.498;2022-09-30T10:53:51;96382.13;;;13.72;100.00
61037;BME280;57313;47.040;15.498;2022-09-30T10:56:36;96388.88;;;13.75;100.00
61037;BME280;57313;47.040;15.498;2022-09-30T10:59:04;96403.88;;;13.73;100.00
61037;BME280;57313;47.040;15.498;2022-09-30T11:01:37;96399.75;;;13.70;100.00
61037;BME280;57313;47.040;15.498;2022-09-30T11:04:11;96398.78;;;13.71;100.00
61037;BME280;57313;47.040;15.498;2022-09-30T11:06:41;96409.13;;;13.73;100.00
61037;BME280;57313;47.040;15.498;2022-09-30T11:09:13;96400.59;;;13.71;100.00
61037;BME280;57313;47.040;15.498;2022-09-30T11:11:48;96404.16;;;13.79;100.00
61037;BME280;57313;47.040;15.498;2022-09-30T11:14:26;96406.81;;;13.89;100.00
61037;BME280;57313;47.040;15.498;2022-09-30T11:17:08;96408.88;;;13.95;100.00
61037;BME280;57313;47.040;15.498;2022-09-30T11:19:44;96427.50;;;14.02;100.00
61037;BME280;57313;47.040;15.498;2022-09-30T11:22:25;96417.28;;;13.99;100.00
61037;BME280;57313;47.040;15.498;2022-09-30T11:24:54;96418.94;;;14.00;100.00
61037;BME280;57313;47.040;15.498;2022-09-30T11:27:30;96429.69;;;13.97;100.00
61037;BME280;57313;47.040;15.498;2022-09-30T11:30:09;96430.25;;;14.00;100.00
61037;BME280;57313;47.040;15.498;2022-09-30T11:32:53;96443.06;;;14.04;100.00
61037;BME280;57313;47.040;15.498;2022-09-30T11:35:35;96439.50;;;14.05;100.00
61037;BME280;57313;47.040;15.498;2022-09-30T11:38:13;96436.44;;;13.99;100.00
61037;BME280;57313;47.040;15.498;2022-09-30T11:40:49;96435.63;;;13.99;100.00
61037;BME280;57313;47.040;15.498;2022-09-30T11:43:29;96427.91;;;13.97;100.00
61037;BME280;57313;47.040;15.498;2022-09-30T11:46:25;96418.38;;;13.96;100.00
61037;BME280;57313;47.040;15.498;2022-09-30T11:49:12;96427.50;;;14.02;100.00
61037;BME280;57313;47.040;15.498;2022-09-30T11:51:52;96424.19;;;14.10;100.00
61037;BME280;57313;47.040;15.498;2022-09-30T11:54:37;96433.16;;;14.17;100.00
61037;BME280;57313;47.040;15.498;2022-09-30T11:57:13;96441.28;;;14.24;100.00
61037;BME280;57313;47.040;15.498;2022-09-30T11:59:48;96451.50;;;14.27;100.00
61037;BME280;57313;47.040;15.498;2022-09-30T12:02:28;96450.22;;;14.31;100.00
61037;BME280;57313;47.040;15.498;2022-09-30T12:05:03;96451.91;;;14.32;100.00
61037;BME280;57313;47.040;15.498;2022-09-30T12:07:38;96449.16;;;14.33;100.00
61037;BME280;57313;47.040;15.498;2022-09-30T12:10:15;96445.84;;;14.41;100.00
61037;BME280;57313;47.040;15.498;2022-09-30T12:12:48;96455.22;;;14.44;100.00
61037;BME280;57313;47.040;15.498;2022-09-30T12:15:17;96457.44;;;14.48;100.00
61037;BME280;57313;47.040;15.498;2022-09-30T12:17:49;96456.59;;;14.48;100.00
61037;BME280;57313;47.040;15.498;2022-09-30T12:20:22;96448.31;;;14.52;100.00
61037;BME280;57313;47.040;15.498;2022-09-30T12:22:51;96445.03;;;14.60;100.00
61037;BME280;57313;47.040;15.498;2022-09-30T12:25:23;96451.50;;;14.66;100.00
61037;BME280;57313;47.040;15.498;2022-09-30T12:27:56;96456.06;;;14.74;100.00
61037;BME280;57313;47.040;15.498;2022-09-30T12:30:28;96455.09;;;14.75;100.00
61037;BME280;57313;47.040;15.498;2022-09-30T12:33:25;96458.13;;;14.80;100.00
61037;BME280;57313;47.040;15.498;2022-09-30T12:39:25;96455.34;;;14.81;100.00
61037;BME280;57313;47.040;15.498;2022-09-30T12:42:17;96458.38;;;14.86;100.00
61037;BME280;57313;47.040;15.498;2022-09-30T12:45:11;96449.56;;;14.87;100.00
61037;BME280;57313;47.040;15.498;2022-09-30T12:47:47;96449.41;;;14.89;100.00
61037;BME280;57313;47.040;15.498;2022-09-30T12:50:18;96462.25;;;14.92;100.00
61037;BME280;57313;47.040;15.498;2022-09-30T12:52:46;96471.63;;;14.85;100.00
61037;BME280;57313;47.040;15.498;2022-09-30T12:55:23;96480.63;;;14.82;100.00
61037;BME280;57313;47.040;15.498;2022-09-30T12:57:51;96478.41;;;14.78;100.00
61037;BME280;57313;47.040;15.498;2022-09-30T13:00:26;96480.59;;;14.72;100.00
61037;BME280;57313;47.040;15.498;2022-09-30T13:02:57;96481.72;;;14.70;100.00
61037;BME280;57313;47.040;15.498;2022-09-30T13:05:55;96482.53;;;14.70;100.00
61037;BME280;57313;47.040;15.498;2022-09-30T13:08:45;96486.25;;;14.68;100.00
61037;BME280;57313;47.040;15.498;2022-09-30T13:11:43;96479.09;;;14.60;100.00
61037;BME280;57313;47.040;15.498;2022-09-30T13:14:22;96474.69;;;14.61;100.00
61037;BME280;57313;47.040;15.498;2022-09-30T13:17:00;96479.81;;;14.62;100.00
61037;BME280;57313;47.040;15.498;2022-09-30T13:19:33;96473.84;;;14.60;100.00
61037;BME280;57313;47.040;15.498;2022-09-30T13:25:17;96481.16;;;14.47;100.00
61037;BME280;57313;47.040;15.498;2022-09-30T13:27:49;96473.97;;;14.49;100.00
61037;BME280;57313;47.040;15.498;2022-09-30T13:30:39;96469.00;;;14.46;100.00